Time;durP1;ratioP1;P1;durP2;ratioP2;P2;SDS_P1;SDS_P2;PMS_P1;PMS_P2;Temp;Humidity;BMP_temperature;BMP_pressure;BME280_temperature;BME280_humidity;BME280_pressure;Samples;Min_cycle;Max_cycle;Signal;HPM_P1;HPM_P2
2021/11/11 00:00:41;;;;;;;19.45;14.20;;;;;;;;;;2091190;28;20789;-64
2021/11/11 00:01:42;;;;;;;24.02;15.40;;;;;;;;;;2092841;28;20714;-57
2021/11/11 00:02:42;;;;;;;19.30;15.13;;;;;;;;;;2091303;28;20229;-65
2021/11/11 00:03:43;;;;;;;21.48;14.60;;;;;;;;;;2096345;28;20167;-61
2021/11/11 00:04:44;;;;;;;18.45;14.10;;;;;;;;;;2090824;28;20697;-61
2021/11/11 00:05:44;;;;;;;19.50;14.10;;;;;;;;;;2094211;28;20194;-58
2021/11/11 00:06:45;;;;;;;23.52;15.40;;;;;;;;;;2095950;28;20183;-64
2021/11/11 00:07:45;;;;;;;19.25;14.35;;;;;;;;;;2093521;28;20180;-57
2021/11/11 00:08:45;;;;;;;26.70;14.23;;;;;;;;;;2093120;28;20180;-63
2021/11/11 00:09:45;;;;;;;22.75;15.15;;;;;;;;;;2102243;28;20739;-63
2021/11/11 00:10:46;;;;;;;19.40;14.98;;;;;;;;;;2097056;28;20647;-67
2021/11/11 00:11:47;;;;;;;22.10;14.88;;;;;;;;;;2104668;28;20315;-68
2021/11/11 00:12:48;;;;;;;18.65;13.77;;;;;;;;;;2105545;28;20189;-63
2021/11/11 00:13:48;;;;;;;21.23;15.02;;;;;;;;;;2097280;28;20187;-61
2021/11/11 00:14:48;;;;;;;23.33;15.02;;;;;;;;;;2101453;28;20205;-61
2021/11/11 00:15:49;;;;;;;22.58;14.85;;;;;;;;;;2103615;28;20201;-66
2021/11/11 00:16:49;;;;;;;23.33;14.82;;;;;;;;;;2095311;28;20164;-62
2021/11/11 00:17:50;;;;;;;19.17;14.55;;;;;;;;;;2095125;28;20241;-63
2021/11/11 00:18:50;;;;;;;23.55;15.55;;;;;;;;;;2096577;28;20245;-61
2021/11/11 00:19:51;;;;;;;21.30;15.20;;;;;;;;;;2096130;28;20689;-61
2021/11/11 00:20:51;;;;;;;22.13;15.50;;;;;;;;;;2105057;28;20194;-64
2021/11/11 00:21:51;;;;;;;21.30;15.35;;;;;;;;;;2104843;28;20202;-61
2021/11/11 00:22:52;;;;;;;21.58;14.65;;;;;;;;;;2104551;28;20273;-62
2021/11/11 00:23:52;;;;;;;24.15;16.52;;;;;;;;;;2106152;28;20182;-63
2021/11/11 00:24:52;;;;;;;22.42;15.38;;;;;;;;;;2104523;28;20178;-62
2021/11/11 00:25:53;;;;;;;21.85;15.65;;;;;;;;;;2101841;28;20181;-64
2021/11/11 00:26:53;;;;;;;18.80;14.18;;;;;;;;;;2106656;28;20273;-63
2021/11/11 00:27:53;;;;;;;23.98;16.33;;;;;;;;;;2104620;28;20166;-64
2021/11/11 00:28:55;;;;;;;25.60;15.85;;;;;;;;;;2097088;28;20671;-62
2021/11/11 00:29:55;;;;;;;21.05;14.32;;;;;;;;;;2096550;28;20203;-62
2021/11/11 00:30:55;;;;;;;20.25;15.07;;;;;;;;;;2095981;28;20205;-63
2021/11/11 00:31:55;;;;;;;21.35;16.27;;;;;;;;;;2084445;28;20190;-65
2021/11/11 00:32:56;;;;;;;20.70;15.68;;;;;;;;;;2096391;28;20175;-63
2021/11/11 00:33:56;;;;;;;20.40;16.45;;;;;;;;;;2091690;28;20654;-64
2021/11/11 00:34:56;;;;;;;21.13;15.55;;;;;;;;;;2096864;28;20631;-63
2021/11/11 00:35:57;;;;;;;24.33;16.53;;;;;;;;;;2090860;28;20740;-61
2021/11/11 00:36:58;;;;;;;23.52;16.63;;;;;;;;;;2104700;28;20248;-57
2021/11/11 00:37:59;;;;;;;21.60;16.38;;;;;;;;;;2098359;28;20175;-65
2021/11/11 00:39:01;;;;;;;24.17;15.45;;;;;;;;;;2100794;28;20175;-63
2021/11/11 00:40:01;;;;;;;21.48;15.63;;;;;;;;;;2099633;28;20231;-62
2021/11/11 00:41:03;;;;;;;24.40;16.38;;;;;;;;;;2102094;28;20195;-62
2021/11/11 00:42:03;;;;;;;23.27;15.88;;;;;;;;;;2096126;28;20258;-64
2021/11/11 00:43:03;;;;;;;22.60;16.48;;;;;;;;;;2088661;28;20191;-64
2021/11/11 00:44:03;;;;;;;22.48;15.82;;;;;;;;;;2104093;28;20179;-61
2021/11/11 00:45:04;;;;;;;24.20;16.65;;;;;;;;;;2105319;28;20245;-63
2021/11/11 00:46:04;;;;;;;22.27;17.08;;;;;;;;;;2104469;28;20197;-67
2021/11/11 00:47:05;;;;;;;28.17;17.30;;;;;;;;;;2104062;28;20174;-69
2021/11/11 00:48:06;;;;;;;19.50;15.93;;;;;;;;;;2099290;28;20194;-63
2021/11/11 00:49:07;;;;;;;22.83;15.90;;;;;;;;;;2104717;28;20538;-59
2021/11/11 00:50:07;;;;;;;21.90;15.20;;;;;;;;;;2106310;28;20211;-62
2021/11/11 00:51:08;;;;;;;21.92;16.25;;;;;;;;;;2105068;28;20220;-58
2021/11/11 00:52:08;;;;;;;21.52;15.27;;;;;;;;;;2105590;28;20174;-58
2021/11/11 00:53:08;;;;;;;23.17;15.67;;;;;;;;;;2105428;28;20166;-64
2021/11/11 00:54:09;;;;;;;23.55;16.05;;;;;;;;;;2102482;28;20180;-64
2021/11/11 00:55:10;;;;;;;24.33;16.77;;;;;;;;;;2105354;28;20169;-59
2021/11/11 00:56:19;;;;;;;22.17;15.05;;;;;;;;;;2105108;28;20183;-63
2021/11/11 00:57:21;;;;;;;25.02;16.38;;;;;;;;;;2104850;28;20166;-64
2021/11/11 00:58:22;;;;;;;24.27;16.33;;;;;;;;;;2103384;28;20170;-60
2021/11/11 00:59:22;;;;;;;26.77;17.57;;;;;;;;;;2103660;28;20943;-59
2021/11/11 01:00:22;;;;;;;25.92;16.17;;;;;;;;;;2095938;28;20170;-61
2021/11/11 01:01:23;;;;;;;21.38;15.77;;;;;;;;;;2095436;28;20175;-60
2021/11/11 01:02:24;;;;;;;22.77;15.75;;;;;;;;;;2095774;28;20186;-63
2021/11/11 01:03:30;;;;;;;25.13;16.05;;;;;;;;;;2096080;28;20189;-55
2021/11/11 01:04:31;;;;;;;20.35;15.52;;;;;;;;;;2104324;28;20265;-61
2021/11/11 01:05:33;;;;;;;23.33;16.10;;;;;;;;;;2097470;28;20216;-57
2021/11/11 01:06:33;;;;;;;22.13;16.42;;;;;;;;;;2081898;28;20917;-59
2021/11/11 01:07:34;;;;;;;23.88;16.70;;;;;;;;;;2097367;28;20190;-62
2021/11/11 01:08:35;;;;;;;25.67;15.85;;;;;;;;;;2106101;28;20178;-63
2021/11/11 01:09:35;;;;;;;22.95;15.90;;;;;;;;;;2104871;28;20343;-64
2021/11/11 01:10:36;;;;;;;26.42;16.80;;;;;;;;;;2106001;28;20265;-65
2021/11/11 01:11:36;;;;;;;21.90;15.20;;;;;;;;;;2105920;28;20163;-64
2021/11/11 01:12:37;;;;;;;21.08;14.85;;;;;;;;;;2097929;28;20186;-63
2021/11/11 01:13:37;;;;;;;21.38;15.38;;;;;;;;;;2096584;28;20225;-64
2021/11/11 01:14:37;;;;;;;21.98;16.10;;;;;;;;;;2089356;28;20808;-61
2021/11/11 01:15:38;;;;;;;24.38;15.88;;;;;;;;;;2097850;28;20182;-59
2021/11/11 01:16:38;;;;;;;20.38;15.57;;;;;;;;;;2105647;28;20709;-66
2021/11/11 01:17:39;;;;;;;25.40;16.20;;;;;;;;;;2106958;28;20165;-63
2021/11/11 01:18:39;;;;;;;22.52;15.85;;;;;;;;;;2105428;28;20312;-63
2021/11/11 01:19:40;;;;;;;22.38;16.10;;;;;;;;;;2106516;28;20273;-62
2021/11/11 01:20:40;;;;;;;21.85;15.25;;;;;;;;;;2101850;28;20221;-63
2021/11/11 01:21:40;;;;;;;26.70;16.30;;;;;;;;;;2105452;28;20579;-59
2021/11/11 01:22:42;;;;;;;22.45;15.45;;;;;;;;;;2104026;28;20173;-62
2021/11/11 01:23:42;;;;;;;21.65;16.00;;;;;;;;;;2106818;28;20207;-59
2021/11/11 01:24:42;;;;;;;25.45;16.80;;;;;;;;;;2106837;28;20174;-61
2021/11/11 01:25:43;;;;;;;27.33;16.80;;;;;;;;;;2106152;28;20577;-67
2021/11/11 01:26:43;;;;;;;25.98;18.00;;;;;;;;;;2105949;28;20787;-63
2021/11/11 01:27:44;;;;;;;24.70;17.23;;;;;;;;;;2089226;28;20164;-65
2021/11/11 01:28:49;;;;;;;26.63;16.80;;;;;;;;;;2083144;28;20180;-64
2021/11/11 01:29:52;;;;;;;23.48;16.90;;;;;;;;;;2088948;28;20192;-60
2021/11/11 01:30:52;;;;;;;21.38;15.98;;;;;;;;;;2090661;28;20201;-61
2021/11/11 01:32:08;;;;;;;22.20;16.77;;;;;;;;;;2102626;28;20219;-62
2021/11/11 01:33:08;;;;;;;23.40;16.23;;;;;;;;;;2097262;28;20603;-61
2021/11/11 01:34:09;;;;;;;27.05;16.45;;;;;;;;;;2094577;28;20174;-54
2021/11/11 01:35:10;;;;;;;27.67;16.85;;;;;;;;;;2105093;28;20366;-66
2021/11/11 01:36:11;;;;;;;21.73;16.05;;;;;;;;;;2096976;28;20163;-66
2021/11/11 01:37:26;;;;;;;21.48;16.45;;;;;;;;;;2096404;28;20269;-64
2021/11/11 01:38:29;;;;;;;21.83;15.73;;;;;;;;;;2097971;28;20171;-62
2021/11/11 01:39:31;;;;;;;25.10;17.08;;;;;;;;;;2089660;28;20187;-58
2021/11/11 01:40:35;;;;;;;23.08;17.20;;;;;;;;;;2090679;28;20591;-63
2021/11/11 01:41:36;;;;;;;22.77;16.08;;;;;;;;;;2097280;28;20594;-63
2021/11/11 01:42:41;;;;;;;23.92;16.27;;;;;;;;;;2095024;28;20195;-67
2021/11/11 01:43:41;;;;;;;21.63;15.82;;;;;;;;;;2105753;28;20245;-62
2021/11/11 01:44:51;;;;;;;20.77;15.23;;;;;;;;;;2089949;28;20199;-64
2021/11/11 01:45:53;;;;;;;23.48;15.65;;;;;;;;;;2095275;28;20200;-62
2021/11/11 01:46:57;;;;;;;22.40;16.83;;;;;;;;;;2097805;28;20693;-64
2021/11/11 01:47:59;;;;;;;27.67;17.40;;;;;;;;;;2105860;28;20181;-63
2021/11/11 01:49:02;;;;;;;21.45;17.05;;;;;;;;;;2104359;28;20173;-66
2021/11/11 01:50:05;;;;;;;22.02;16.77;;;;;;;;;;2095214;28;20167;-63
2021/11/11 01:51:06;;;;;;;24.38;16.98;;;;;;;;;;2095544;28;20737;-62
2021/11/11 01:52:18;;;;;;;28.60;16.60;;;;;;;;;;2086284;28;20199;-64
2021/11/11 01:53:21;;;;;;;26.90;15.60;;;;;;;;;;2091433;28;20276;-67
2021/11/11 01:54:24;;;;;;;23.58;15.95;;;;;;;;;;2098134;28;20171;-63
2021/11/11 01:55:30;;;;;;;19.95;15.57;;;;;;;;;;2097956;28;20671;-61
2021/11/11 01:56:35;;;;;;;22.27;15.77;;;;;;;;;;2095984;28;20179;-61
2021/11/11 01:57:48;;;;;;;22.33;16.95;;;;;;;;;;2099578;28;20171;-71
2021/11/11 01:58:50;;;;;;;22.27;16.33;;;;;;;;;;2098130;28;20525;-63
2021/11/11 01:59:51;;;;;;;22.85;16.45;;;;;;;;;;2097745;28;20775;-61
2021/11/11 02:00:56;;;;;;;26.63;17.70;;;;;;;;;;2102084;28;20174;-65
2021/11/11 02:02:04;;;;;;;25.75;16.38;;;;;;;;;;2097752;28;20212;-62
2021/11/11 02:03:14;;;;;;;24.83;15.98;;;;;;;;;;2093049;28;20180;-65
2021/11/11 02:04:33;;;;;;;22.83;16.40;;;;;;;;;;2097376;28;20174;-67
2021/11/11 02:05:35;;;;;;;23.20;16.05;;;;;;;;;;2095639;28;20198;-62
2021/11/11 02:06:35;;;;;;;24.88;16.83;;;;;;;;;;2097271;28;20179;-65
2021/11/11 02:07:37;;;;;;;25.67;15.70;;;;;;;;;;2106015;28;20181;-64
2021/11/11 02:08:38;;;;;;;22.33;15.15;;;;;;;;;;2105634;28;20216;-63
2021/11/11 02:09:38;;;;;;;24.70;16.50;;;;;;;;;;2105608;28;20190;-60
2021/11/11 02:10:43;;;;;;;25.77;16.17;;;;;;;;;;2097082;28;20179;-64
2021/11/11 02:11:44;;;;;;;23.25;15.95;;;;;;;;;;2098112;28;20194;-61
2021/11/11 02:12:45;;;;;;;24.27;17.35;;;;;;;;;;2093546;28;20163;-61
2021/11/11 02:13:48;;;;;;;23.23;16.15;;;;;;;;;;2096050;28;20186;-66
2021/11/11 02:14:53;;;;;;;24.08;16.20;;;;;;;;;;2089300;28;20196;-63
2021/11/11 02:15:57;;;;;;;28.45;16.92;;;;;;;;;;2081800;28;20639;-61
2021/11/11 02:17:02;;;;;;;22.13;15.80;;;;;;;;;;2091202;28;20172;-64
2021/11/11 02:18:19;;;;;;;20.75;15.18;;;;;;;;;;2096303;28;20162;-65
2021/11/11 02:19:20;;;;;;;23.33;16.65;;;;;;;;;;2105670;28;20183;-63
2021/11/11 02:20:23;;;;;;;23.30;17.10;;;;;;;;;;2101099;28;20170;-64
2021/11/11 02:21:39;;;;;;;24.10;16.17;;;;;;;;;;2104540;28;20172;-63
2021/11/11 02:22:39;;;;;;;23.50;16.20;;;;;;;;;;2091799;28;20195;-62
2021/11/11 02:23:40;;;;;;;25.65;16.23;;;;;;;;;;2104788;28;20170;-62
2021/11/11 02:24:44;;;;;;;27.65;16.88;;;;;;;;;;2105843;28;20543;-65
2021/11/11 02:25:47;;;;;;;21.40;14.88;;;;;;;;;;2097287;28;20175;-63
2021/11/11 02:26:49;;;;;;;21.48;15.73;;;;;;;;;;2104700;28;20189;-65
2021/11/11 02:27:56;;;;;;;25.73;17.23;;;;;;;;;;2097500;28;20778;-64
2021/11/11 02:28:59;;;;;;;21.63;15.80;;;;;;;;;;2102133;28;20178;-64
2021/11/11 02:29:59;;;;;;;20.02;15.23;;;;;;;;;;2097783;28;20190;-63
2021/11/11 02:31:00;;;;;;;23.08;16.85;;;;;;;;;;2097410;28;20206;-66
2021/11/11 02:32:30;;;;;;;23.08;16.50;;;;;;;;;;2100971;28;20174;-62
2021/11/11 02:33:32;;;;;;;23.98;15.00;;;;;;;;;;2097848;28;20179;-63
2021/11/11 02:34:32;;;;;;;24.75;15.95;;;;;;;;;;2087584;28;20192;-61
2021/11/11 02:35:34;;;;;;;19.55;15.35;;;;;;;;;;2089910;28;20262;-63
2021/11/11 02:36:34;;;;;;;19.13;14.90;;;;;;;;;;2088595;28;20210;-62
2021/11/11 02:37:35;;;;;;;23.40;15.38;;;;;;;;;;2088475;28;20203;-61
2021/11/11 02:38:54;;;;;;;27.38;16.25;;;;;;;;;;2098266;28;20234;-61
2021/11/11 02:39:55;;;;;;;29.17;16.03;;;;;;;;;;2105149;28;20194;-61
2021/11/11 02:41:05;;;;;;;20.17;15.95;;;;;;;;;;2090623;28;20184;-64
2021/11/11 02:42:06;;;;;;;22.85;15.63;;;;;;;;;;2102231;28;20182;-62
2021/11/11 02:43:07;;;;;;;23.17;16.15;;;;;;;;;;2098780;28;20179;-58
2021/11/11 02:44:07;;;;;;;20.83;14.95;;;;;;;;;;2098521;28;20190;-56
2021/11/11 02:45:08;;;;;;;20.52;14.95;;;;;;;;;;2098899;28;20165;-63
2021/11/11 02:46:13;;;;;;;23.08;15.55;;;;;;;;;;2102590;28;20170;-60
2021/11/11 02:47:14;;;;;;;23.75;17.50;;;;;;;;;;2098247;28;20185;-61
2021/11/11 02:48:40;;;;;;;24.52;16.98;;;;;;;;;;2094622;28;20159;-63
2021/11/11 02:49:41;;;;;;;24.05;16.50;;;;;;;;;;2099417;28;20628;-62
2021/11/11 02:50:41;;;;;;;25.55;15.82;;;;;;;;;;2096802;28;20190;-63
2021/11/11 02:51:41;;;;;;;24.58;15.20;;;;;;;;;;2096661;28;20246;-63
2021/11/11 02:52:43;;;;;;;22.52;16.20;;;;;;;;;;2095893;28;20171;-65
2021/11/11 02:53:43;;;;;;;20.08;15.82;;;;;;;;;;2104965;28;20664;-62
2021/11/11 02:54:43;;;;;;;24.33;15.70;;;;;;;;;;2096987;28;20174;-63
2021/11/11 02:55:44;;;;;;;22.77;15.73;;;;;;;;;;2105940;28;20632;-63
2021/11/11 02:56:45;;;;;;;22.33;16.30;;;;;;;;;;2105610;28;20174;-64
2021/11/11 02:57:46;;;;;;;21.20;16.02;;;;;;;;;;2097041;28;20175;-63
2021/11/11 02:58:47;;;;;;;27.98;16.17;;;;;;;;;;2085683;28;20653;-63
2021/11/11 02:59:49;;;;;;;21.35;15.32;;;;;;;;;;2097047;28;20206;-64
2021/11/11 03:00:50;;;;;;;22.60;15.45;;;;;;;;;;2095174;28;20236;-63
2021/11/11 03:01:53;;;;;;;23.65;17.05;;;;;;;;;;2106242;28;20178;-63
2021/11/11 03:02:53;;;;;;;23.48;16.23;;;;;;;;;;2103093;28;20586;-62
2021/11/11 03:04:04;;;;;;;21.92;15.88;;;;;;;;;;2100039;28;20167;-64
2021/11/11 03:05:06;;;;;;;24.60;16.35;;;;;;;;;;2105236;28;20207;-64
2021/11/11 03:06:07;;;;;;;25.52;16.42;;;;;;;;;;2096656;28;20164;-63
2021/11/11 03:07:10;;;;;;;22.65;15.15;;;;;;;;;;2096873;28;20166;-64
2021/11/11 03:08:11;;;;;;;24.08;15.70;;;;;;;;;;2105885;28;20595;-69
2021/11/11 03:09:18;;;;;;;22.35;15.57;;;;;;;;;;2105132;28;20178;-63
2021/11/11 03:10:20;;;;;;;25.63;16.33;;;;;;;;;;2096243;28;20203;-60
2021/11/11 03:11:27;;;;;;;25.42;17.42;;;;;;;;;;2098006;28;20289;-63
2021/11/11 03:12:33;;;;;;;24.90;16.77;;;;;;;;;;2098693;28;20178;-64
2021/11/11 03:13:33;;;;;;;21.27;16.58;;;;;;;;;;2106784;28;20174;-62
2021/11/11 03:14:42;;;;;;;20.58;16.08;;;;;;;;;;2108582;28;20177;-63
2021/11/11 03:15:42;;;;;;;22.80;15.77;;;;;;;;;;2100932;28;20171;-63
2021/11/11 03:16:43;;;;;;;23.65;16.17;;;;;;;;;;2092913;28;20194;-59
2021/11/11 03:17:44;;;;;;;24.02;16.52;;;;;;;;;;2104871;28;20170;-65
2021/11/11 03:18:44;;;;;;;21.30;16.73;;;;;;;;;;2103911;28;20175;-61
2021/11/11 03:19:46;;;;;;;26.23;15.90;;;;;;;;;;2105725;28;20202;-61
2021/11/11 03:20:46;;;;;;;24.38;16.50;;;;;;;;;;2105815;28;20253;-64
2021/11/11 03:21:47;;;;;;;26.10;16.25;;;;;;;;;;2105064;28;20225;-63
2021/11/11 03:22:49;;;;;;;29.90;17.45;;;;;;;;;;2096956;28;20186;-63
2021/11/11 03:23:51;;;;;;;22.83;16.80;;;;;;;;;;2097015;28;20576;-62
2021/11/11 03:24:53;;;;;;;24.63;15.95;;;;;;;;;;2097575;28;20682;-63
2021/11/11 03:25:55;;;;;;;23.05;16.75;;;;;;;;;;2096341;28;20211;-62
2021/11/11 03:27:01;;;;;;;23.77;17.10;;;;;;;;;;2105568;28;20189;-64
2021/11/11 03:28:01;;;;;;;26.08;16.45;;;;;;;;;;2096828;28;20175;-64
2021/11/11 03:29:05;;;;;;;25.50;16.27;;;;;;;;;;2096162;28;20228;-61
2021/11/11 03:30:14;;;;;;;25.42;16.05;;;;;;;;;;2096391;28;20174;-61
2021/11/11 03:31:14;;;;;;;23.90;15.82;;;;;;;;;;2097627;28;20182;-62
2021/11/11 03:32:15;;;;;;;23.50;16.75;;;;;;;;;;2097153;28;20171;-65
2021/11/11 03:33:18;;;;;;;22.40;16.58;;;;;;;;;;2097377;28;20175;-61
2021/11/11 03:34:22;;;;;;;21.45;15.80;;;;;;;;;;2094754;28;20250;-64
2021/11/11 03:35:23;;;;;;;27.35;17.45;;;;;;;;;;2105501;28;20174;-63
2021/11/11 03:36:25;;;;;;;28.40;17.27;;;;;;;;;;2096607;28;20747;-63
2021/11/11 03:37:26;;;;;;;25.70;17.05;;;;;;;;;;2095712;28;20171;-64
2021/11/11 03:38:26;;;;;;;23.73;16.55;;;;;;;;;;2095698;28;20183;-63
2021/11/11 03:39:27;;;;;;;25.67;17.85;;;;;;;;;;2096828;28;20191;-63
2021/11/11 03:40:29;;;;;;;20.77;16.23;;;;;;;;;;2096550;28;20174;-64
2021/11/11 03:41:30;;;;;;;23.85;16.73;;;;;;;;;;2094878;28;20580;-64
2021/11/11 03:42:30;;;;;;;22.13;16.33;;;;;;;;;;2096980;28;20178;-63
2021/11/11 03:43:32;;;;;;;26.40;17.25;;;;;;;;;;2103557;28;20797;-62
2021/11/11 03:44:43;;;;;;;21.70;16.02;;;;;;;;;;2105233;28;20174;-65
2021/11/11 03:45:45;;;;;;;23.92;16.92;;;;;;;;;;2096765;28;20210;-62
2021/11/11 03:46:47;;;;;;;24.08;16.15;;;;;;;;;;2104947;28;20189;-64
2021/11/11 03:47:48;;;;;;;27.20;15.48;;;;;;;;;;2097047;28;20170;-61
2021/11/11 03:48:48;;;;;;;24.75;15.38;;;;;;;;;;2102442;28;20228;-62
2021/11/11 03:49:49;;;;;;;19.75;16.05;;;;;;;;;;2096578;28;20230;-64
2021/11/11 03:50:50;;;;;;;22.42;15.73;;;;;;;;;;2088422;28;20192;-65
2021/11/11 03:51:50;;;;;;;24.25;16.35;;;;;;;;;;2096685;28;20285;-65
2021/11/11 03:52:51;;;;;;;21.23;17.00;;;;;;;;;;2100374;28;20825;-64
2021/11/11 03:53:52;;;;;;;24.63;16.38;;;;;;;;;;2105338;28;20182;-64
2021/11/11 03:54:53;;;;;;;23.40;16.23;;;;;;;;;;2096471;28;20647;-64
2021/11/11 03:55:55;;;;;;;21.67;15.48;;;;;;;;;;2097649;28;20223;-64
2021/11/11 03:56:58;;;;;;;25.90;16.10;;;;;;;;;;2096952;28;20183;-63
2021/11/11 03:57:59;;;;;;;21.65;15.75;;;;;;;;;;2090042;28;20169;-64
2021/11/11 03:59:02;;;;;;;28.30;16.15;;;;;;;;;;2098198;28;20166;-64
2021/11/11 04:00:08;;;;;;;23.90;15.60;;;;;;;;;;2088287;28;20182;-62
2021/11/11 04:01:15;;;;;;;26.15;16.42;;;;;;;;;;2095551;28;20199;-65
2021/11/11 04:02:23;;;;;;;25.10;15.88;;;;;;;;;;2105735;28;20162;-67
2021/11/11 04:03:23;;;;;;;25.55;17.25;;;;;;;;;;2105563;28;20919;-65
2021/11/11 04:04:23;;;;;;;25.55;15.98;;;;;;;;;;2098570;28;20175;-64
2021/11/11 04:05:23;;;;;;;27.88;17.83;;;;;;;;;;2095794;28;20195;-63
2021/11/11 04:06:28;;;;;;;24.33;15.88;;;;;;;;;;2096784;28;20182;-64
2021/11/11 04:07:29;;;;;;;27.63;16.77;;;;;;;;;;2093729;28;20661;-64
2021/11/11 04:08:32;;;;;;;21.50;15.88;;;;;;;;;;2103214;28;20237;-62
2021/11/11 04:09:35;;;;;;;21.55;16.15;;;;;;;;;;2095419;28;20221;-65
2021/11/11 04:10:35;;;;;;;23.35;16.05;;;;;;;;;;2096281;28;20859;-66
2021/11/11 04:11:48;;;;;;;23.85;16.30;;;;;;;;;;2089732;28;20175;-64
2021/11/11 04:12:49;;;;;;;23.17;16.00;;;;;;;;;;2086136;28;20254;-63
2021/11/11 04:13:50;;;;;;;22.92;15.95;;;;;;;;;;2084856;28;20167;-62
2021/11/11 04:14:52;;;;;;;29.13;18.17;;;;;;;;;;2089266;28;20849;-59
2021/11/11 04:15:52;;;;;;;22.30;15.93;;;;;;;;;;2093885;28;20167;-63
2021/11/11 04:16:53;;;;;;;25.60;16.65;;;;;;;;;;2097514;28;20174;-66
2021/11/11 04:17:54;;;;;;;21.15;16.10;;;;;;;;;;2104060;28;20189;-62
2021/11/11 04:18:55;;;;;;;22.25;17.15;;;;;;;;;;2096731;28;20580;-63
2021/11/11 04:19:56;;;;;;;19.83;16.35;;;;;;;;;;2096194;28;20239;-63
2021/11/11 04:20:56;;;;;;;24.45;17.45;;;;;;;;;;2096733;28;20726;-63
2021/11/11 04:21:57;;;;;;;24.10;18.33;;;;;;;;;;2096374;28;20217;-62
2021/11/11 04:22:57;;;;;;;31.05;21.80;;;;;;;;;;2105213;28;20716;-63
2021/11/11 04:23:58;;;;;;;28.15;19.02;;;;;;;;;;2103136;28;20282;-64
2021/11/11 04:25:01;;;;;;;27.08;18.10;;;;;;;;;;2097242;28;20201;-64
2021/11/11 04:26:18;;;;;;;30.08;16.10;;;;;;;;;;2093757;28;20171;-61
2021/11/11 04:27:32;;;;;;;28.88;17.38;;;;;;;;;;2098761;28;20174;-63
2021/11/11 04:28:39;;;;;;;22.70;16.85;;;;;;;;;;2095621;28;20245;-64
2021/11/11 04:29:51;;;;;;;35.85;22.50;;;;;;;;;;2088082;28;20195;-65
2021/11/11 04:30:57;;;;;;;29.48;19.33;;;;;;;;;;2090873;28;20667;-63
2021/11/11 04:32:02;;;;;;;23.20;16.83;;;;;;;;;;2097030;28;20667;-62
2021/11/11 04:33:03;;;;;;;28.27;16.98;;;;;;;;;;2103947;28;20174;-63
2021/11/11 04:34:10;;;;;;;32.83;20.33;;;;;;;;;;2097035;28;20170;-63
2021/11/11 04:35:11;;;;;;;26.92;18.48;;;;;;;;;;2104727;28;20226;-66
2021/11/11 04:37:59;;;;;;;25.25;18.42;;;;;;;;;;2096307;28;20209;-63
2021/11/11 04:41:47;;;;;;;26.48;17.20;;;;;;;;;;2102300;28;20178;-64
2021/11/11 04:44:08;;;;;;;25.25;16.15;;;;;;;;;;2098385;28;20221;-64
2021/11/11 05:01:49;;;;;;;24.95;17.25;;;;;;;;;;2090531;28;20164;-57
2021/11/11 05:02:57;;;;;;;24.60;16.90;;;;;;;;;;2091686;28;20201;-62
2021/11/11 05:03:58;;;;;;;25.70;18.58;;;;;;;;;;2083211;28;20549;-61
2021/11/11 05:04:58;;;;;;;24.60;16.92;;;;;;;;;;2082175;28;20187;-64
2021/11/11 05:05:59;;;;;;;25.05;17.38;;;;;;;;;;2097226;28;20244;-63
2021/11/11 05:07:00;;;;;;;29.98;18.00;;;;;;;;;;2098740;28;20739;-63
2021/11/11 05:08:01;;;;;;;26.17;18.33;;;;;;;;;;2090473;28;20183;-63
2021/11/11 05:09:01;;;;;;;25.60;18.47;;;;;;;;;;2089824;28;20164;-64
2021/11/11 05:10:03;;;;;;;25.75;16.85;;;;;;;;;;2090956;28;20229;-61
2021/11/11 05:11:04;;;;;;;25.15;18.42;;;;;;;;;;2098037;28;20202;-65
2021/11/11 05:12:04;;;;;;;22.90;17.20;;;;;;;;;;2098482;28;20258;-61
2021/11/11 05:13:05;;;;;;;28.10;18.70;;;;;;;;;;2107298;28;20176;-63
2021/11/11 05:14:06;;;;;;;24.67;18.00;;;;;;;;;;2106879;28;20170;-62
2021/11/11 05:15:06;;;;;;;28.40;18.85;;;;;;;;;;2098627;28;20254;-60
2021/11/11 05:16:07;;;;;;;24.95;17.92;;;;;;;;;;2106548;28;20659;-60
2021/11/11 05:17:07;;;;;;;25.23;18.50;;;;;;;;;;2098541;28;20167;-64
2021/11/11 05:18:07;;;;;;;27.47;17.47;;;;;;;;;;2098564;28;20178;-60
2021/11/11 05:19:10;;;;;;;26.75;18.23;;;;;;;;;;2096022;28;20175;-62
2021/11/11 05:20:11;;;;;;;28.83;17.83;;;;;;;;;;2093153;28;20171;-58
2021/11/11 05:21:11;;;;;;;27.23;18.83;;;;;;;;;;2097563;28;20574;-62
2021/11/11 05:22:12;;;;;;;21.70;16.27;;;;;;;;;;2106097;28;20174;-62
2021/11/11 05:23:15;;;;;;;27.50;18.25;;;;;;;;;;2095000;28;20178;-62
2021/11/11 05:24:17;;;;;;;22.90;17.10;;;;;;;;;;2097923;28;20181;-61
2021/11/11 05:25:20;;;;;;;30.63;17.65;;;;;;;;;;2098758;28;20179;-59
2021/11/11 05:26:22;;;;;;;29.00;17.65;;;;;;;;;;2098710;28;20362;-62
2021/11/11 05:27:26;;;;;;;26.90;17.90;;;;;;;;;;2098286;28;20193;-60
2021/11/11 05:28:27;;;;;;;27.20;17.45;;;;;;;;;;2090813;28;20176;-60
2021/11/11 05:29:30;;;;;;;26.48;18.55;;;;;;;;;;2082261;28;20224;-62
2021/11/11 05:30:31;;;;;;;26.83;16.83;;;;;;;;;;2085106;28;20175;-61
2021/11/11 05:31:32;;;;;;;23.27;17.20;;;;;;;;;;2098546;28;20630;-63
2021/11/11 05:32:33;;;;;;;25.30;17.52;;;;;;;;;;2098551;28;20250;-61
2021/11/11 05:33:34;;;;;;;22.83;17.33;;;;;;;;;;2090308;28;20668;-63
2021/11/11 05:34:35;;;;;;;27.38;17.55;;;;;;;;;;2081977;28;20184;-62
2021/11/11 05:35:35;;;;;;;24.00;16.58;;;;;;;;;;2098710;28;20167;-61
2021/11/11 05:36:35;;;;;;;26.85;18.15;;;;;;;;;;2098432;28;20182;-58
2021/11/11 05:37:36;;;;;;;29.13;17.48;;;;;;;;;;2090097;28;20579;-60
2021/11/11 05:38:36;;;;;;;26.17;17.13;;;;;;;;;;2083489;28;20169;-64
2021/11/11 05:39:39;;;;;;;26.15;17.23;;;;;;;;;;2090105;28;20191;-61
2021/11/11 05:40:39;;;;;;;26.33;16.70;;;;;;;;;;2098546;28;20171;-59
2021/11/11 05:41:40;;;;;;;24.63;17.10;;;;;;;;;;2098529;28;20178;-58
2021/11/11 05:42:41;;;;;;;20.80;16.95;;;;;;;;;;2089964;28;20180;-60
2021/11/11 05:43:41;;;;;;;24.58;16.70;;;;;;;;;;2098519;28;20167;-60
2021/11/11 05:44:41;;;;;;;25.95;17.85;;;;;;;;;;2098498;28;20174;-60
2021/11/11 05:45:42;;;;;;;25.60;18.02;;;;;;;;;;2095001;28;20579;-60
2021/11/11 05:46:42;;;;;;;25.70;18.08;;;;;;;;;;2098366;28;20347;-59
2021/11/11 05:47:44;;;;;;;27.65;18.05;;;;;;;;;;2098976;28;20217;-62
2021/11/11 05:48:45;;;;;;;25.80;17.73;;;;;;;;;;2091095;28;20266;-62
2021/11/11 05:49:45;;;;;;;28.73;18.58;;;;;;;;;;2098032;28;20684;-63
2021/11/11 05:50:45;;;;;;;22.15;17.00;;;;;;;;;;2086937;28;20167;-60
2021/11/11 05:51:48;;;;;;;24.17;17.98;;;;;;;;;;2091378;28;20178;-60
2021/11/11 05:52:49;;;;;;;25.70;18.17;;;;;;;;;;2098920;28;20472;-59
2021/11/11 05:53:51;;;;;;;28.02;18.05;;;;;;;;;;2094731;28;20261;-60
2021/11/11 05:54:52;;;;;;;26.52;16.88;;;;;;;;;;2091285;28;20171;-62
2021/11/11 05:55:54;;;;;;;22.13;17.55;;;;;;;;;;2082718;28;20230;-61
2021/11/11 05:56:55;;;;;;;24.48;17.02;;;;;;;;;;2083058;28;20176;-59
2021/11/11 05:57:55;;;;;;;26.20;17.42;;;;;;;;;;2082679;28;20667;-62
2021/11/11 05:58:55;;;;;;;25.92;17.80;;;;;;;;;;2091195;28;20170;-65
2021/11/11 05:59:58;;;;;;;23.35;17.40;;;;;;;;;;2090991;23;20236;-58
2021/11/11 06:00:58;;;;;;;22.48;17.55;;;;;;;;;;2078783;28;20180;-55
2021/11/11 06:02:07;;;;;;;25.13;17.13;;;;;;;;;;2070678;28;20209;-57
2021/11/11 06:03:07;;;;;;;30.77;18.15;;;;;;;;;;2063495;28;20650;-55
2021/11/11 06:04:09;;;;;;;26.83;17.77;;;;;;;;;;2070547;28;20161;-57
2021/11/11 06:05:18;;;;;;;24.58;17.05;;;;;;;;;;2069708;28;20178;-58
2021/11/11 06:06:19;;;;;;;25.85;17.33;;;;;;;;;;2072571;28;20224;-57
2021/11/11 06:07:19;;;;;;;24.98;17.77;;;;;;;;;;2062605;28;20206;-56
2021/11/11 06:08:20;;;;;;;25.75;17.13;;;;;;;;;;2060288;28;20166;-55
2021/11/11 06:09:21;;;;;;;21.67;17.23;;;;;;;;;;2072397;28;20282;-57
2021/11/11 06:10:21;;;;;;;25.92;17.65;;;;;;;;;;2073328;28;20288;-55
2021/11/11 06:11:21;;;;;;;27.25;18.42;;;;;;;;;;2080926;28;20919;-54
2021/11/11 06:12:22;;;;;;;25.13;17.80;;;;;;;;;;2081279;28;20184;-57
2021/11/11 06:13:22;;;;;;;27.13;17.42;;;;;;;;;;2073229;28;20303;-55
2021/11/11 06:14:22;;;;;;;26.33;18.63;;;;;;;;;;2073194;28;20295;-56
2021/11/11 06:15:23;;;;;;;24.45;17.15;;;;;;;;;;2072213;28;20248;-55
2021/11/11 06:16:23;;;;;;;29.50;17.90;;;;;;;;;;2073258;28;20664;-55
2021/11/11 06:17:24;;;;;;;22.75;16.27;;;;;;;;;;2081309;28;20211;-58
2021/11/11 06:18:25;;;;;;;22.98;16.83;;;;;;;;;;2081465;28;20177;-58
2021/11/11 06:19:25;;;;;;;27.02;17.85;;;;;;;;;;2073700;28;20173;-55
2021/11/11 06:20:39;;;;;;;25.75;17.60;;;;;;;;;;2072659;28;20583;-57
2021/11/11 06:21:41;;;;;;;22.98;16.58;;;;;;;;;;2065342;28;20180;-57
2021/11/11 06:22:43;;;;;;;30.70;18.17;;;;;;;;;;2064822;28;20182;-59
2021/11/11 06:23:43;;;;;;;27.17;17.88;;;;;;;;;;2070682;28;20259;-60
2021/11/11 06:24:44;;;;;;;24.25;17.13;;;;;;;;;;2072365;28;20657;-59